HU-0032 weather

Mezőhegyes
Csongrád, Hungary

Public forecast

Using degrees Celsius for public forecast. Weather courtesy of forecast.io.

METAR (pilot weather report)

Closest report is Arad International Airport, 20.0 nm (37.0 km) ESE. Retrieved 2019/06/20 00:30 UTC (0 seconds ago):

LRAR 200030Z 23013KT 9999 TS FEW047CB 20/20 Q1012 R09/19//95

TAF (pilot weather forecast)

Forecast is more than 12 hours old.

Closest forecast is Arad International Airport, 20.0 nm (37.0 km) ESE. Retrieved 2012/12/05 09:33 UTC (7 years ago):

TAF TAF LRAR 050800Z 0509/0521 VRB04KT 3000 -SN BR BKN005 OVC010 TEMPO 0509/0513 1500 SN BKN002 OVC005 BECMG 0513/0515 5000 -SN BKN010 OVC025